createdAt,value
2019-05-07T00:01:09.287Z,6.33
2019-05-07T00:03:42.125Z,6.17
2019-05-07T00:08:52.150Z,6.50
2019-05-07T00:11:22.922Z,7.00
2019-05-07T00:13:54.564Z,7.60
2019-05-07T00:16:25.994Z,6.47
2019-05-07T00:18:57.302Z,6.37
2019-05-07T00:21:28.706Z,6.60
2019-05-07T00:24:02.150Z,6.67
2019-05-07T00:26:33.216Z,6.97
2019-05-07T00:29:04.592Z,7.47
2019-05-07T00:31:35.940Z,9.70
2019-05-07T00:34:07.316Z,9.30
2019-05-07T00:36:44.056Z,8.50
2019-05-07T00:39:42.355Z,7.50
2019-05-07T00:42:28.124Z,7.70
2019-05-07T00:45:14.079Z,7.73
2019-05-07T00:47:34.768Z,7.60
2019-05-07T00:50:12.949Z,7.10
2019-05-07T00:52:44.494Z,7.37
2019-05-07T00:55:16.812Z,7.10
2019-05-07T00:57:48.159Z,7.60
2019-05-07T01:00:19.532Z,8.37
2019-05-07T01:02:52.574Z,7.47
2019-05-07T01:05:24.262Z,6.83
2019-05-07T01:07:55.628Z,7.73
2019-05-07T01:10:27.005Z,7.90
2019-05-07T01:12:59.353Z,8.13
2019-05-07T01:15:33.882Z,7.87
2019-05-07T01:18:03.804Z,7.63
2019-05-07T01:20:35.220Z,6.47
2019-05-07T01:23:06.588Z,8.03
2019-05-07T01:25:37.966Z,7.60
2019-05-07T01:28:09.334Z,8.60
2019-05-07T01:30:42.990Z,7.03
2019-05-07T01:33:25.184Z,7.10
2019-05-07T01:36:18.556Z,7.17
2019-05-07T01:38:52.114Z,7.03
2019-05-07T01:41:23.183Z,7.30
2019-05-07T01:43:54.562Z,6.70
2019-05-07T01:46:25.936Z,7.43
2019-05-07T01:48:57.630Z,6.53
2019-05-07T01:51:29.085Z,7.70
2019-05-07T01:54:02.220Z,6.73
2019-05-07T01:56:33.567Z,6.97
2019-05-07T01:59:04.935Z,7.40
2019-05-07T02:01:36.318Z,7.87
2019-05-07T02:04:14.396Z,6.40
2019-05-07T02:07:11.940Z,7.80
2019-05-07T02:10:02.814Z,6.97
2019-05-07T02:12:35.553Z,7.13
2019-05-07T02:15:08.695Z,7.00
2019-05-07T02:17:40.059Z,7.17
2019-05-07T02:20:13.069Z,8.07
2019-05-07T02:22:44.565Z,7.17
2019-05-07T02:25:16.168Z,7.07
2019-05-07T02:27:47.560Z,7.40
2019-05-07T02:30:19.025Z,7.07
2019-05-07T02:32:53.689Z,6.37
2019-05-07T02:35:23.763Z,7.37
2019-05-07T02:38:04.394Z,6.50
2019-05-07T02:40:44.126Z,6.90
2019-05-07T02:43:15.504Z,6.87
2019-05-07T02:46:20.633Z,7.47
2019-05-07T02:48:42.902Z,6.43
2019-05-07T02:51:24.158Z,6.77
2019-05-07T02:54:18.116Z,6.53
2019-05-07T02:56:49.504Z,6.83
2019-05-07T02:59:23.362Z,7.80
2019-05-07T03:01:54.090Z,6.63
2019-05-07T03:04:26.335Z,7.10
2019-05-07T03:06:57.735Z,8.50
2019-05-07T03:09:29.117Z,8.20
2019-05-07T03:12:03.736Z,7.60
2019-05-07T03:14:33.714Z,8.10
2019-05-07T03:17:05.132Z,9.03
2019-05-07T03:19:38.184Z,7.80
2019-05-07T03:22:09.575Z,6.93
2019-05-07T03:24:54.615Z,7.70
2019-05-07T03:27:25.990Z,8.33
2019-05-07T03:30:26.796Z,8.67
2019-05-07T03:33:17.302Z,9.00
2019-05-07T03:35:56.021Z,8.10
2019-05-07T03:38:25.866Z,8.60
2019-05-07T03:40:57.165Z,8.13
2019-05-07T03:43:28.588Z,10.30
2019-05-07T03:46:07.973Z,10.53
2019-05-07T03:48:40.158Z,12.17
2019-05-07T03:51:13.234Z,12.97
2019-05-07T03:53:44.747Z,9.30
2019-05-07T03:56:16.131Z,9.77
2019-05-07T03:58:47.512Z,10.10
2019-05-07T04:01:18.902Z,9.13
2019-05-07T04:03:53.093Z,8.73
2019-05-07T04:06:23.624Z,9.50
2019-05-07T04:08:54.964Z,9.53
2019-05-07T04:11:26.360Z,9.47
2019-05-07T04:13:57.745Z,8.97
2019-05-07T04:16:29.135Z,10.47
2019-05-07T04:19:03.634Z,9.67
2019-05-07T04:21:34.475Z,9.70
2019-05-07T04:24:25.076Z,8.57
2019-05-07T04:27:03.689Z,9.33
2019-05-07T04:29:35.320Z,7.97
2019-05-07T04:32:07.518Z,9.20
2019-05-07T04:34:54.629Z,9.20
2019-05-07T04:37:26.064Z,8.77
2019-05-07T04:39:57.528Z,9.00
2019-05-07T04:42:29.025Z,8.10
2019-05-07T04:45:04.318Z,8.07
2019-05-07T04:47:43.181Z,8.63
2019-05-07T04:50:09.254Z,8.97
2019-05-07T04:52:43.621Z,9.00
2019-05-07T04:55:16.829Z,8.50
2019-05-07T04:57:48.246Z,8.37
2019-05-07T05:00:22.704Z,8.63
2019-05-07T05:03:23.474Z,9.20
2019-05-07T05:05:53.917Z,11.13
2019-05-07T05:08:25.432Z,9.93
2019-05-07T05:10:56.860Z,10.27
2019-05-07T05:13:28.299Z,10.07
2019-05-07T05:16:02.116Z,8.67
2019-05-07T05:18:33.548Z,8.13
2019-05-07T05:21:18.652Z,8.07
2019-05-07T05:23:56.712Z,8.60
2019-05-07T05:26:28.146Z,8.03
2019-05-07T05:28:59.561Z,7.60
2019-05-07T05:31:32.982Z,9.67
2019-05-07T05:34:03.985Z,7.90
2019-05-07T05:36:36.536Z,9.17
2019-05-07T05:39:09.783Z,8.57
2019-05-07T05:41:43.057Z,8.97
2019-05-07T05:44:28.625Z,9.87
2019-05-07T05:47:02.272Z,9.23
2019-05-07T05:49:33.265Z,9.73
2019-05-07T05:52:25.415Z,8.87
2019-05-07T05:55:08.553Z,9.30
2019-05-07T05:58:03.340Z,9.63
2019-05-07T06:00:52.990Z,9.30
2019-05-07T06:03:43.408Z,9.50
2019-05-07T06:06:42.208Z,9.80
2019-05-07T06:09:42.233Z,9.63
2019-05-07T06:12:32.762Z,9.50
2019-05-07T06:15:32.632Z,10.03
2019-05-07T06:18:21.116Z,8.87
2019-05-07T06:20:58.028Z,9.70
2019-05-07T06:23:37.845Z,10.13
2019-05-07T06:26:09.192Z,9.23
2019-05-07T06:28:42.556Z,8.97
2019-05-07T06:31:13.543Z,9.17
2019-05-07T06:33:44.850Z,9.13
2019-05-07T06:36:16.238Z,10.73
2019-05-07T06:38:53.179Z,10.33
2019-05-07T06:41:43.302Z,10.03
2019-05-07T06:44:22.356Z,8.83
2019-05-07T06:46:53.749Z,9.83
2019-05-07T06:49:25.122Z,9.97
2019-05-07T06:51:56.504Z,10.00
2019-05-07T06:54:27.923Z,10.90
2019-05-07T06:56:59.268Z,9.93
2019-05-07T06:59:42.432Z,10.47
2019-05-07T07:02:28.293Z,9.47
2019-05-07T07:05:12.794Z,9.60
2019-05-07T07:07:49.403Z,9.00
2019-05-07T07:10:39.713Z,8.87
2019-05-07T07:13:11.941Z,8.90
2019-05-07T07:15:43.366Z,9.23
2019-05-07T07:18:14.709Z,8.50
2019-05-07T07:20:48.561Z,8.60
2019-05-07T07:23:22.457Z,9.07
2019-05-07T07:25:53.334Z,8.03
2019-05-07T07:28:27.008Z,8.47
2019-05-07T07:31:22.264Z,6.90
2019-05-07T07:33:54.444Z,7.10
2019-05-07T07:36:27.529Z,6.67
2019-05-07T07:38:58.867Z,9.93
2019-05-07T07:41:37.210Z,7.63
2019-05-07T07:44:08.568Z,7.77
2019-05-07T07:46:42.287Z,6.97
2019-05-07T07:49:15.058Z,6.17
2019-05-07T07:51:46.073Z,5.63
2019-05-07T07:54:17.398Z,5.27
2019-05-07T07:56:56.669Z,5.00
2019-05-07T07:59:54.437Z,5.17
2019-05-07T08:02:38.436Z,4.90
2019-05-07T08:05:12.502Z,5.60
2019-05-07T08:07:43.575Z,4.97
2019-05-07T08:10:15.273Z,3.93
2019-05-07T08:12:46.649Z,4.53
2019-05-07T08:15:23.650Z,3.43
2019-05-07T08:17:52.196Z,4.00
2019-05-07T08:20:23.870Z,3.23
2019-05-07T08:22:55.401Z,3.97
2019-05-07T08:25:44.633Z,4.03
2019-05-07T08:28:16.271Z,4.10
2019-05-07T08:31:18.558Z,4.30
2019-05-07T08:33:56.530Z,3.93
2019-05-07T08:36:27.949Z,4.60
2019-05-07T08:38:59.254Z,3.70
2019-05-07T08:41:31.898Z,4.10
2019-05-07T08:44:12.286Z,4.10
2019-05-07T08:46:52.081Z,4.73
2019-05-07T08:49:35.610Z,4.50
2019-05-07T08:52:03.823Z,4.30
2019-05-07T08:54:35.501Z,4.67
2019-05-07T08:57:07.037Z,5.50
2019-05-07T08:59:39.449Z,4.77
2019-05-07T09:02:12.655Z,4.37
2019-05-07T09:04:46.738Z,4.40
2019-05-07T09:07:18.050Z,4.77
2019-05-07T09:09:49.430Z,4.57
2019-05-07T09:12:22.785Z,4.53
2019-05-07T09:14:53.877Z,4.27
2019-05-07T09:17:25.301Z,4.30
2019-05-07T09:19:56.700Z,4.73
2019-05-07T09:22:28.282Z,4.20
2019-05-07T09:24:59.622Z,5.17
2019-05-07T09:27:48.094Z,4.47
2019-05-07T09:30:33.014Z,4.50
2019-05-07T09:33:15.428Z,4.40
2019-05-07T09:35:52.815Z,4.10
2019-05-07T09:38:24.322Z,3.73
2019-05-07T09:40:57.076Z,3.70
2019-05-07T09:43:28.534Z,3.30
2019-05-07T09:45:59.856Z,3.70
2019-05-07T09:48:33.597Z,3.43
2019-05-07T09:51:04.296Z,4.07
2019-05-07T09:53:35.692Z,3.23
2019-05-07T09:56:07.143Z,3.40
2019-05-07T09:58:39.284Z,3.37
2019-05-07T10:01:12.513Z,3.50
2019-05-07T10:03:43.792Z,3.80
2019-05-07T10:06:15.228Z,3.67
2019-05-07T10:08:46.606Z,4.13
2019-05-07T10:11:36.158Z,3.77
2019-05-07T10:14:12.444Z,3.93
2019-05-07T10:16:53.358Z,4.27
2019-05-07T10:19:24.803Z,3.57
2019-05-07T10:21:56.276Z,3.93
2019-05-07T10:24:27.648Z,3.83
2019-05-07T10:26:59.426Z,4.30
2019-05-07T10:29:32.244Z,4.27
2019-05-07T10:32:03.762Z,3.33
2019-05-07T10:34:35.115Z,3.10
2019-05-07T10:37:06.848Z,3.77
2019-05-07T10:39:38.210Z,3.77
2019-05-07T10:42:09.522Z,4.27
2019-05-07T10:44:49.919Z,3.60
2019-05-07T10:47:41.731Z,3.63
2019-05-07T10:50:31.701Z,3.93
2019-05-07T10:52:53.023Z,3.57
2019-05-07T10:55:24.263Z,3.27
2019-05-07T10:57:56.279Z,3.97
2019-05-07T11:00:27.943Z,3.47
2019-05-07T11:03:02.373Z,3.20
2019-05-07T11:05:34.011Z,3.80
2019-05-07T11:08:05.394Z,3.50
2019-05-07T11:10:37.836Z,3.53
2019-05-07T11:13:09.224Z,3.90
2019-05-07T11:15:42.971Z,4.20
2019-05-07T11:18:26.513Z,4.10
2019-05-07T11:20:57.873Z,5.07
2019-05-07T11:23:29.187Z,4.03
2019-05-07T11:26:02.398Z,3.60
2019-05-07T11:28:33.571Z,4.20
2019-05-07T11:31:05.018Z,3.90
2019-05-07T11:33:36.361Z,3.90
2019-05-07T11:36:07.815Z,3.67
2019-05-07T11:38:39.128Z,3.53
2019-05-07T11:41:12.648Z,3.70
2019-05-07T11:43:57.155Z,3.67
2019-05-07T11:46:32.926Z,3.37
2019-05-07T11:49:14.901Z,4.07
2019-05-07T11:51:55.247Z,3.57
2019-05-07T11:54:26.605Z,3.30
2019-05-07T11:56:57.915Z,3.73
2019-05-07T11:59:29.221Z,3.87
2019-05-07T12:02:03.949Z,3.77
2019-05-07T12:04:35.321Z,3.37
2019-05-07T12:07:06.666Z,3.67
2019-05-07T12:09:38.023Z,3.80
2019-05-07T12:12:09.363Z,3.47
2019-05-07T12:14:40.696Z,3.80
2019-05-07T12:17:12.199Z,3.50
2019-05-07T12:19:43.962Z,3.60
2019-05-07T12:22:17.048Z,3.63
2019-05-07T12:24:48.381Z,3.80
2019-05-07T12:27:19.888Z,3.70
2019-05-07T12:29:52.871Z,3.63
2019-05-07T12:32:34.407Z,3.60
2019-05-07T12:35:12.614Z,3.37
2019-05-07T12:37:46.225Z,3.47
2019-05-07T12:40:16.896Z,3.63
2019-05-07T12:42:48.268Z,3.40
2019-05-07T12:45:19.735Z,3.50
2019-05-07T12:47:52.959Z,3.80
2019-05-07T12:50:24.365Z,4.30
2019-05-07T12:53:17.642Z,3.67
2019-05-07T12:55:53.804Z,4.20
2019-05-07T12:58:25.155Z,4.30
2019-05-07T13:01:04.631Z,3.77
2019-05-07T13:03:42.820Z,4.10
2019-05-07T13:06:14.222Z,4.30
2019-05-07T13:08:45.584Z,4.37
2019-05-07T13:11:16.898Z,4.07
2019-05-07T13:13:48.266Z,4.57
2019-05-07T13:16:22.067Z,4.87
2019-05-07T13:18:53.470Z,4.73
2019-05-07T13:21:24.812Z,4.23
2019-05-07T13:23:56.172Z,4.03
2019-05-07T13:26:27.652Z,4.23
2019-05-07T13:28:58.994Z,4.67
2019-05-07T13:31:34.440Z,4.20
2019-05-07T13:34:05.900Z,4.20
2019-05-07T13:36:39.914Z,3.97
2019-05-07T13:39:18.915Z,4.80
2019-05-07T13:42:18.086Z,3.90
2019-05-07T13:45:08.377Z,3.70
2019-05-07T13:47:42.028Z,3.80
2019-05-07T13:50:13.789Z,3.70
2019-05-07T13:52:45.662Z,4.80
2019-05-07T13:55:17.102Z,4.00
2019-05-07T13:57:48.434Z,4.07
2019-05-07T14:00:32.460Z,3.87
2019-05-07T14:05:33.808Z,3.57
2019-05-07T14:08:05.398Z,4.67
2019-05-07T14:10:36.769Z,4.57
2019-05-07T14:13:14.393Z,3.77
2019-05-07T14:15:43.271Z,4.10
2019-05-07T14:18:14.636Z,4.20
2019-05-07T14:20:45.974Z,4.17
2019-05-07T14:23:17.279Z,4.20
2019-05-07T14:25:48.708Z,4.07
2019-05-07T14:28:23.530Z,4.13
2019-05-07T14:30:53.376Z,4.30
2019-05-07T14:33:45.775Z,4.40
2019-05-07T14:36:22.285Z,4.40
2019-05-07T14:38:53.369Z,4.70
2019-05-07T14:41:25.769Z,4.70
2019-05-07T14:44:03.225Z,4.10
2019-05-07T14:46:44.641Z,4.23
2019-05-07T14:49:07.756Z,5.13
2019-05-07T14:51:39.100Z,4.67
2019-05-07T14:54:12.347Z,4.53
2019-05-07T14:56:43.812Z,4.63
2019-05-07T14:59:15.261Z,4.13
2019-05-07T15:01:46.635Z,4.70
2019-05-07T15:04:17.978Z,3.90
2019-05-07T15:06:49.356Z,4.37
2019-05-07T15:09:22.410Z,4.10
2019-05-07T15:11:53.730Z,4.03
2019-05-07T15:14:25.059Z,3.77
2019-05-07T15:17:02.243Z,4.37
2019-05-07T15:19:33.344Z,3.53
2019-05-07T15:22:49.223Z,4.53
2019-05-07T15:25:16.096Z,3.97
2019-05-07T15:27:50.093Z,4.30
2019-05-07T15:30:22.080Z,4.73
2019-05-07T15:32:53.554Z,3.73
2019-05-07T15:35:24.860Z,3.77
2019-05-07T15:37:56.243Z,3.87
2019-05-07T15:40:27.601Z,4.20
2019-05-07T15:42:58.992Z,4.13
2019-05-07T15:45:30.319Z,4.53
2019-05-07T15:48:02.172Z,3.43
2019-05-07T15:50:33.665Z,4.30
2019-05-07T15:53:28.066Z,4.17
2019-05-07T15:56:01.644Z,4.43
2019-05-07T15:58:32.503Z,4.00
2019-05-07T16:01:04.061Z,3.97
2019-05-07T16:03:42.680Z,4.07
2019-05-07T16:06:15.667Z,4.30
2019-05-07T16:08:50.926Z,4.10
2019-05-07T16:11:23.187Z,4.30
2019-05-07T16:14:14.345Z,3.90
2019-05-07T16:16:46.936Z,4.50
2019-05-07T16:19:23.665Z,3.93
2019-05-07T16:21:55.625Z,4.43
2019-05-07T16:24:26.919Z,4.53
2019-05-07T16:26:58.350Z,4.10
2019-05-07T16:29:29.738Z,4.50
2019-05-07T16:32:02.372Z,4.33
2019-05-07T16:34:33.838Z,4.73
2019-05-07T16:37:07.474Z,4.30
2019-05-07T16:39:38.236Z,4.57
2019-05-07T16:42:09.586Z,4.73
2019-05-07T16:44:41.768Z,6.10
2019-05-07T16:47:13.331Z,4.70
2019-05-07T16:49:44.684Z,4.50
2019-05-07T16:52:17.419Z,4.50
2019-05-07T16:54:48.825Z,4.00
2019-05-07T16:57:37.791Z,4.77
2019-05-07T17:00:14.850Z,7.70
2019-05-07T17:02:47.579Z,5.00
2019-05-07T17:05:18.926Z,4.40
2019-05-07T17:08:09.239Z,5.17
2019-05-07T17:10:42.447Z,4.50
2019-05-07T17:13:13.594Z,4.90
2019-05-07T17:15:58.148Z,4.03
2019-05-07T17:18:32.426Z,4.13
2019-05-07T17:21:02.913Z,4.60
2019-05-07T17:23:43.939Z,4.63
2019-05-07T17:26:07.321Z,3.47
2019-05-07T17:28:38.730Z,4.80
2019-05-07T17:31:12.243Z,4.67
2019-05-07T17:33:43.178Z,4.20
2019-05-07T17:36:14.558Z,4.57
2019-05-07T17:38:46.004Z,3.83
2019-05-07T17:41:23.706Z,4.47
2019-05-07T17:43:52.097Z,4.70
2019-05-07T17:46:23.500Z,4.57
2019-05-07T17:48:54.855Z,4.27
2019-05-07T17:51:45.159Z,4.23
2019-05-07T17:54:16.563Z,4.07
2019-05-07T17:56:47.871Z,3.90
2019-05-07T17:59:19.227Z,4.17
2019-05-07T18:02:13.385Z,4.30
2019-05-07T18:04:51.336Z,4.40
2019-05-07T18:07:19.961Z,3.87
2019-05-07T18:09:51.356Z,3.77
2019-05-07T18:12:22.850Z,3.43
2019-05-07T18:14:54.334Z,3.33
2019-05-07T18:17:36.652Z,4.37
2019-05-07T18:20:08.818Z,6.97
2019-05-07T18:22:40.205Z,10.20
2019-05-07T18:25:12.449Z,4.93
2019-05-07T18:27:43.855Z,5.60
2019-05-07T18:30:15.542Z,5.73
2019-05-07T18:32:52.053Z,4.10
2019-05-07T18:35:23.397Z,4.57
2019-05-07T18:37:54.781Z,4.03
2019-05-07T18:40:26.151Z,3.37
2019-05-07T18:42:57.516Z,3.37
2019-05-07T18:45:28.957Z,3.00
2019-05-07T18:48:02.297Z,4.20
2019-05-07T18:50:34.016Z,3.60
2019-05-07T18:53:05.399Z,3.50
2019-05-07T18:55:36.764Z,4.17
2019-05-07T18:58:08.092Z,3.60
2019-05-07T19:00:43.482Z,4.00
2019-05-07T19:03:15.817Z,3.43
2019-05-07T19:05:47.161Z,3.20
2019-05-07T19:08:18.506Z,3.87
2019-05-07T19:10:52.033Z,3.47
2019-05-07T19:13:22.967Z,3.10
2019-05-07T19:15:56.589Z,3.60
2019-05-07T19:18:27.429Z,3.97
2019-05-07T19:20:58.814Z,3.73
2019-05-07T19:23:30.139Z,3.60
2019-05-07T19:26:02.475Z,3.33
2019-05-07T19:28:35.014Z,3.80
2019-05-07T19:31:06.493Z,3.40
2019-05-07T19:33:37.825Z,3.87
2019-05-07T19:36:09.221Z,5.47
2019-05-07T19:38:42.044Z,4.83
2019-05-07T19:41:13.612Z,5.00
2019-05-07T19:43:45.048Z,7.57
2019-05-07T19:46:16.414Z,7.37
2019-05-07T19:48:47.860Z,14.60
2019-05-07T19:51:19.242Z,21.97
2019-05-07T19:53:52.523Z,15.10
2019-05-07T19:56:24.754Z,26.50
2019-05-07T19:58:56.087Z,76.63
2019-05-07T20:01:35.830Z,18.40
2019-05-07T20:04:08.259Z,23.63
2019-05-07T20:06:39.611Z,15.70
2019-05-07T20:09:14.805Z,14.67
2019-05-07T20:11:47.033Z,12.70
2019-05-07T20:14:18.499Z,8.13
2019-05-07T20:16:49.881Z,8.13
2019-05-07T20:19:22.954Z,7.37
2019-05-07T20:21:54.477Z,6.57
2019-05-07T20:24:25.822Z,6.80
2019-05-07T20:26:58.201Z,7.00
2019-05-07T20:29:29.581Z,6.60
2019-05-07T20:32:02.064Z,5.90
2019-05-07T20:34:33.515Z,6.10
2019-05-07T20:37:05.101Z,6.83
2019-05-07T20:39:36.531Z,6.50
2019-05-07T20:42:07.930Z,7.60
2019-05-07T20:44:39.262Z,7.60
2019-05-07T20:47:12.558Z,5.73
2019-05-07T20:49:43.649Z,5.90
2019-05-07T20:52:15.033Z,5.43
2019-05-07T20:55:12.854Z,6.20
2019-05-07T20:57:45.232Z,5.80
2019-05-07T21:00:28.703Z,5.87
2019-05-07T21:03:17.644Z,5.73
2019-05-07T21:05:52.728Z,6.17
2019-05-07T21:08:23.621Z,6.00
2019-05-07T21:10:54.936Z,5.80
2019-05-07T21:13:31.676Z,5.33
2019-05-07T21:15:59.429Z,5.77
2019-05-07T21:18:32.703Z,5.70
2019-05-07T21:21:04.731Z,5.23
2019-05-07T21:23:36.190Z,5.40
2019-05-07T21:26:07.524Z,5.90
2019-05-07T21:28:38.852Z,6.13
2019-05-07T21:31:11.951Z,5.70
2019-05-07T21:33:43.241Z,5.73
2019-05-07T21:36:14.603Z,5.77
2019-05-07T21:38:45.965Z,5.37
2019-05-07T21:41:17.333Z,5.40
2019-05-07T21:43:48.691Z,5.67
2019-05-07T21:46:22.023Z,6.20
2019-05-07T21:48:53.763Z,5.83
2019-05-07T21:51:25.179Z,5.50
2019-05-07T21:54:03.705Z,6.03
2019-05-07T21:56:42.261Z,5.87
2019-05-07T21:59:16.843Z,6.53
2019-05-07T22:01:52.646Z,6.37
2019-05-07T22:04:24.100Z,6.53
2019-05-07T22:06:55.414Z,6.97
2019-05-07T22:09:26.767Z,6.77
2019-05-07T22:11:58.489Z,6.23
2019-05-07T22:14:29.802Z,6.07
2019-05-07T22:17:02.023Z,5.87
2019-05-07T22:19:33.899Z,6.20
2019-05-07T22:22:05.154Z,7.20
2019-05-07T22:24:36.472Z,6.30
2019-05-07T22:27:07.811Z,6.23
2019-05-07T22:29:39.236Z,6.30
2019-05-07T22:32:22.410Z,6.60
2019-05-07T22:34:58.608Z,6.83
2019-05-07T22:37:32.449Z,7.03
2019-05-07T22:40:12.155Z,6.27
2019-05-07T22:42:45.310Z,6.97
2019-05-07T22:45:16.738Z,7.00
2019-05-07T22:47:48.070Z,6.23
2019-05-07T22:50:19.412Z,6.47
2019-05-07T22:52:52.540Z,6.73
2019-05-07T22:55:23.892Z,6.73
2019-05-07T22:58:32.681Z,6.47
2019-05-07T23:01:13.083Z,6.70
2019-05-07T23:03:44.544Z,7.07
2019-05-07T23:06:15.970Z,6.73
2019-05-07T23:08:47.322Z,6.53
2019-05-07T23:11:18.695Z,7.20
2019-05-07T23:13:54.324Z,6.93
2019-05-07T23:16:23.349Z,7.17
2019-05-07T23:18:54.847Z,6.50
2019-05-07T23:21:26.188Z,6.23
2019-05-07T23:23:57.572Z,8.10
2019-05-07T23:26:28.978Z,8.10
2019-05-07T23:29:02.462Z,8.07
2019-05-07T23:31:33.918Z,9.30
2019-05-07T23:34:05.275Z,7.57
2019-05-07T23:36:38.627Z,7.70
2019-05-07T23:39:11.959Z,7.83
2019-05-07T23:41:47.801Z,7.70
2019-05-07T23:44:20.320Z,6.43
2019-05-07T23:46:52.050Z,7.27
2019-05-07T23:49:23.471Z,7.20
2019-05-07T23:51:54.875Z,7.77
2019-05-07T23:54:26.325Z,7.23
2019-05-07T23:57:05.863Z,7.10
2019-05-07T23:59:32.715Z,7.27
